Time;durP1;ratioP1;P1;durP2;ratioP2;P2;SDS_P1;SDS_P2;PMS_P1;PMS_P2;Temp;Humidity;BMP_temperature;BMP_pressure;BME280_temperature;BME280_humidity;BME280_pressure;Samples;Min_cycle;Max_cycle;Signal;HPM_P1;HPM_P2
2023/07/07 00:01:15;;;;;;;2.92;2.40;;;;;;;;;;5024368;28;20381;-62
2023/07/07 00:03:42;;;;;;;1.90;1.80;;;;;;;;;;5025075;28;20045;-62
2023/07/07 00:06:08;;;;;;;1.90;1.80;;;;;;;;;;5024648;28;20465;-62
2023/07/07 00:08:35;;;;;;;1.65;1.55;;;;;;;;;;5025157;28;20041;-62
2023/07/07 00:11:04;;;;;;;1.73;1.63;;;;;;;;;;5024850;28;20046;-62
2023/07/07 00:13:30;;;;;;;1.50;1.40;;;;;;;;;;5024863;28;20120;-62
2023/07/07 00:16:01;;;;;;;1.60;1.50;;;;;;;;;;5024418;28;20050;-62
2023/07/07 00:18:27;;;;;;;1.58;1.48;;;;;;;;;;5024529;28;20481;-62
2023/07/07 00:21:00;;;;;;;1.20;1.10;;;;;;;;;;5024507;28;20124;-62
2023/07/07 00:23:26;;;;;;;1.55;1.45;;;;;;;;;;5024582;28;20480;-62
2023/07/07 00:26:03;;;;;;;1.15;1.05;;;;;;;;;;5024763;28;20050;-62
2023/07/07 00:28:29;;;;;;;1.20;1.17;;;;;;;;;;5023913;28;20048;-62
2023/07/07 00:30:55;;;;;;;1.23;1.13;;;;;;;;;;5024497;28;20037;-62
2023/07/07 00:33:21;;;;;;;1.20;1.10;;;;;;;;;;5024472;28;20120;-62
2023/07/07 00:35:48;;;;;;;1.60;1.15;;;;;;;;;;5027643;28;20128;-62
2023/07/07 00:38:14;;;;;;;1.38;1.17;;;;;;;;;;5028030;28;20046;-62
2023/07/07 00:40:40;;;;;;;1.08;0.98;;;;;;;;;;5028239;28;20041;-62
2023/07/07 00:43:13;;;;;;;0.80;0.80;;;;;;;;;;5028117;28;20103;-62
2023/07/07 00:45:39;;;;;;;0.98;0.98;;;;;;;;;;5028498;28;20103;-62
2023/07/07 00:48:07;;;;;;;1.08;1.00;;;;;;;;;;5028869;28;20045;-62
2023/07/07 00:50:35;;;;;;;1.10;1.05;;;;;;;;;;5027869;28;20069;-62
2023/07/07 00:53:01;;;;;;;1.25;0.98;;;;;;;;;;5028323;28;20133;-62
2023/07/07 00:55:54;;;;;;;1.33;1.05;;;;;;;;;;5028040;28;20049;-62
2023/07/07 00:58:20;;;;;;;;;;;;;;;;;;5025547;28;20054;-62
2023/07/07 01:00:48;;;;;;;0.98;0.88;;;;;;;;;;5027846;28;19967;-62
2023/07/07 01:03:23;;;;;;;1.20;1.05;;;;;;;;;;5027022;28;20045;-62
2023/07/07 01:05:50;;;;;;;1.10;1.00;;;;;;;;;;5027783;28;20049;-62
2023/07/07 01:08:17;;;;;;;1.20;1.10;;;;;;;;;;5027469;28;20053;-62
2023/07/07 01:10:43;;;;;;;1.15;1.10;;;;;;;;;;5027075;28;20057;-62
2023/07/07 01:13:09;;;;;;;0.82;0.80;;;;;;;;;;5027400;28;20050;-62
2023/07/07 01:15:38;;;;;;;0.95;0.95;;;;;;;;;;5027992;28;20071;-62
2023/07/07 01:18:10;;;;;;;0.75;0.75;;;;;;;;;;5026163;28;20049;-62
2023/07/07 01:20:46;;;;;;;0.80;0.80;;;;;;;;;;5028190;28;20045;-62
2023/07/07 01:23:15;;;;;;;2.75;1.80;;;;;;;;;;5027326;28;20037;-62
2023/07/07 01:25:55;;;;;;;1.67;0.77;;;;;;;;;;5026875;28;20081;-62
2023/07/07 01:28:32;;;;;;;1.20;1.00;;;;;;;;;;5027364;28;20045;-62
2023/07/07 01:31:28;;;;;;;1.52;1.20;;;;;;;;;;5027586;28;20068;-62
2023/07/07 01:33:54;;;;;;;0.80;0.80;;;;;;;;;;5012751;28;20586;-62
2023/07/07 01:36:20;;;;;;;1.20;1.10;;;;;;;;;;5027025;28;20041;-62
2023/07/07 01:38:48;;;;;;;1.13;1.05;;;;;;;;;;5027090;28;20054;-62
2023/07/07 01:41:29;;;;;;;1.20;1.10;;;;;;;;;;5027435;28;20046;-62
2023/07/07 01:44:05;;;;;;;0.60;0.60;;;;;;;;;;5027466;28;20049;-62
2023/07/07 01:46:35;;;;;;;1.05;0.75;;;;;;;;;;5026046;28;20077;-62
2023/07/07 01:49:04;;;;;;;1.10;1.00;;;;;;;;;;5027648;28;20045;-62
2023/07/07 01:51:34;;;;;;;1.10;1.00;;;;;;;;;;5027083;28;20117;-62
2023/07/07 01:54:01;;;;;;;1.15;1.00;;;;;;;;;;5026351;28;20391;-62
2023/07/07 01:56:31;;;;;;;0.98;0.90;;;;;;;;;;5026811;28;20547;-62
2023/07/07 01:58:57;;;;;;;0.70;0.70;;;;;;;;;;5026771;28;20352;-62
2023/07/07 02:01:23;;;;;;;1.17;0.98;;;;;;;;;;5026040;28;20048;-62
2023/07/07 02:03:49;;;;;;;0.63;0.63;;;;;;;;;;5026638;28;20042;-62
2023/07/07 02:06:15;;;;;;;0.85;0.82;;;;;;;;;;5026630;28;20042;-62
2023/07/07 02:08:41;;;;;;;1.33;1.17;;;;;;;;;;5026094;28;20284;-62
2023/07/07 02:11:07;;;;;;;1.85;1.02;;;;;;;;;;5026140;28;20215;-62
2023/07/07 02:13:35;;;;;;;0.60;0.60;;;;;;;;;;5026383;28;20053;-62
2023/07/07 02:16:01;;;;;;;0.90;0.90;;;;;;;;;;5026387;28;20052;-62
2023/07/07 02:18:27;;;;;;;0.90;0.90;;;;;;;;;;5026267;28;20526;-62
2023/07/07 02:20:53;;;;;;;1.30;1.20;;;;;;;;;;5026035;28;20044;-62
2023/07/07 02:23:19;;;;;;;1.35;1.20;;;;;;;;;;5026142;28;20037;-62
2023/07/07 02:25:45;;;;;;;2.13;1.48;;;;;;;;;;5026383;28;20060;-62
2023/07/07 02:28:11;;;;;;;1.45;1.35;;;;;;;;;;5025323;28;20669;-62
2023/07/07 02:30:37;;;;;;;1.33;1.00;;;;;;;;;;5026086;28;20044;-62
2023/07/07 02:33:08;;;;;;;1.10;1.10;;;;;;;;;;5026760;28;20048;-62
2023/07/07 02:35:34;;;;;;;1.42;1.10;;;;;;;;;;5026277;28;20049;-62
2023/07/07 02:38:00;;;;;;;0.90;0.90;;;;;;;;;;5026296;28;20033;-62
2023/07/07 02:40:26;;;;;;;1.05;1.02;;;;;;;;;;5025830;28;20060;-62
2023/07/07 02:42:52;;;;;;;0.90;0.90;;;;;;;;;;5025413;28;20044;-62
2023/07/07 02:45:18;;;;;;;1.02;0.93;;;;;;;;;;5025679;28;20125;-62
2023/07/07 02:47:44;;;;;;;1.40;1.02;;;;;;;;;;5026075;28;20049;-62
2023/07/07 02:50:10;;;;;;;0.90;0.90;;;;;;;;;;5025049;28;20112;-62
2023/07/07 02:52:36;;;;;;;0.95;0.60;;;;;;;;;;5026197;28;20037;-62
2023/07/07 02:55:02;;;;;;;1.25;1.15;;;;;;;;;;5026161;28;20047;-62
2023/07/07 02:57:28;;;;;;;1.20;1.10;;;;;;;;;;5024747;28;20045;-62
2023/07/07 02:59:54;;;;;;;1.08;1.00;;;;;;;;;;5025864;28;20091;-62
2023/07/07 03:02:20;;;;;;;1.13;1.02;;;;;;;;;;5025609;28;20124;-62
2023/07/07 03:04:49;;;;;;;0.85;0.85;;;;;;;;;;5025147;28;20041;-62
2023/07/07 03:07:15;;;;;;;1.25;1.15;;;;;;;;;;5025171;28;20559;-62
2023/07/07 03:09:41;;;;;;;1.25;1.15;;;;;;;;;;5025543;28;20774;-62
2023/07/07 03:12:08;;;;;;;1.60;1.50;;;;;;;;;;5025016;28;20521;-62
2023/07/07 03:14:34;;;;;;;1.75;1.65;;;;;;;;;;5026273;28;20128;-62
2023/07/07 03:17:00;;;;;;;1.58;1.48;;;;;;;;;;5024897;28;20063;-62
2023/07/07 03:19:26;;;;;;;1.58;1.48;;;;;;;;;;5025181;28;20049;-62
2023/07/07 03:21:55;;;;;;;1.83;1.35;;;;;;;;;;5025507;28;20045;-62
2023/07/07 03:24:21;;;;;;;1.55;1.00;;;;;;;;;;5024484;28;20049;-62
2023/07/07 03:26:47;;;;;;;1.67;1.58;;;;;;;;;;5025422;28;20049;-62
2023/07/07 03:29:13;;;;;;;1.45;1.35;;;;;;;;;;5025386;28;20037;-62
2023/07/07 03:31:39;;;;;;;1.70;1.55;;;;;;;;;;5025113;28;20612;-62
2023/07/07 03:34:07;;;;;;;1.40;1.30;;;;;;;;;;5025957;28;20042;-62
2023/07/07 03:36:34;;;;;;;1.30;1.20;;;;;;;;;;5025755;28;20056;-62
2023/07/07 03:39:01;;;;;;;0.95;0.95;;;;;;;;;;5024601;28;20049;-62
2023/07/07 03:41:28;;;;;;;1.55;1.40;;;;;;;;;;5024789;28;20302;-62
2023/07/07 03:43:55;;;;;;;1.65;1.20;;;;;;;;;;5025089;28;20048;-62
2023/07/07 03:46:22;;;;;;;1.50;1.40;;;;;;;;;;5024212;28;20039;-62
2023/07/07 03:48:49;;;;;;;1.50;1.40;;;;;;;;;;5023411;28;20075;-62
2023/07/07 03:51:15;;;;;;;1.65;1.55;;;;;;;;;;5024252;28;20048;-62
2023/07/07 03:53:42;;;;;;;1.50;1.40;;;;;;;;;;5024338;28;20735;-62
2023/07/07 03:56:08;;;;;;;1.10;1.00;;;;;;;;;;5024572;28;20565;-62
2023/07/07 03:58:34;;;;;;;1.80;1.48;;;;;;;;;;5025578;28;20141;-62
2023/07/07 04:01:09;;;;;;;1.55;1.45;;;;;;;;;;5024208;28;20051;-62
2023/07/07 04:03:35;;;;;;;1.40;1.30;;;;;;;;;;5025503;28;20060;-62
2023/07/07 04:06:01;;;;;;;1.73;1.63;;;;;;;;;;5024145;28;20041;-62
2023/07/07 04:08:27;;;;;;;1.42;1.33;;;;;;;;;;5024682;28;20496;-62
2023/07/07 04:11:04;;;;;;;1.85;1.73;;;;;;;;;;5028802;28;20061;-62
2023/07/07 04:13:31;;;;;;;3.10;2.20;;;;;;;;;;5027931;28;20564;-62
2023/07/07 04:16:15;;;;;;;2.05;1.92;;;;;;;;;;5028757;28;20128;-62
2023/07/07 04:18:42;;;;;;;1.60;1.50;;;;;;;;;;5028606;28;20057;-62
2023/07/07 04:21:10;;;;;;;1.70;1.50;;;;;;;;;;5027702;28;20080;-62
2023/07/07 04:23:37;;;;;;;1.30;1.20;;;;;;;;;;5029217;28;20053;-62
2023/07/07 04:26:04;;;;;;;1.77;1.63;;;;;;;;;;5029089;28;20045;-62
2023/07/07 04:28:30;;;;;;;2.75;1.45;;;;;;;;;;5027955;28;20616;-62
2023/07/07 04:30:57;;;;;;;1.42;1.33;;;;;;;;;;5028495;28;20132;-62
2023/07/07 04:33:24;;;;;;;1.13;1.02;;;;;;;;;;5027995;28;20072;-62
2023/07/07 04:35:54;;;;;;;1.15;1.10;;;;;;;;;;5028186;28;20041;-62
2023/07/07 04:38:21;;;;;;;1.58;1.48;;;;;;;;;;5028395;28;20107;-62
2023/07/07 04:40:47;;;;;;;2.45;1.40;;;;;;;;;;5028495;28;20092;-62
2023/07/07 04:43:13;;;;;;;1.88;1.77;;;;;;;;;;5027351;28;20697;-62
2023/07/07 04:45:39;;;;;;;1.83;1.48;;;;;;;;;;5028168;28;20081;-62
2023/07/07 04:48:06;;;;;;;1.17;1.08;;;;;;;;;;5028684;28;20077;-62
2023/07/07 04:50:33;;;;;;;2.05;1.95;;;;;;;;;;5028550;28;20103;-62
2023/07/07 04:52:59;;;;;;;1.67;1.58;;;;;;;;;;5028201;28;20041;-62
2023/07/07 04:55:25;;;;;;;1.45;1.35;;;;;;;;;;5027358;28;20041;-62
2023/07/07 04:57:51;;;;;;;1.20;1.10;;;;;;;;;;5026682;28;20397;-62
2023/07/07 05:00:17;;;;;;;1.10;1.10;;;;;;;;;;5027642;28;20051;-62
2023/07/07 05:02:45;;;;;;;2.28;2.08;;;;;;;;;;5027476;28;20049;-62
2023/07/07 05:05:11;;;;;;;2.53;2.33;;;;;;;;;;5027776;28;20052;-62
2023/07/07 05:07:37;;;;;;;3.13;2.40;;;;;;;;;;5027879;28;20088;-62
2023/07/07 05:10:03;;;;;;;1.98;1.75;;;;;;;;;;5027752;28;20441;-62
2023/07/07 05:12:29;;;;;;;1.75;1.65;;;;;;;;;;5027223;28;20132;-62
2023/07/07 05:14:55;;;;;;;3.00;2.38;;;;;;;;;;5027655;28;20462;-62
2023/07/07 05:17:21;;;;;;;2.88;2.67;;;;;;;;;;5026789;28;20045;-62
2023/07/07 05:19:47;;;;;;;1.83;1.70;;;;;;;;;;5027257;28;20044;-62
2023/07/07 05:22:13;;;;;;;2.13;1.92;;;;;;;;;;5026638;28;20063;-62
2023/07/07 05:24:39;;;;;;;4.40;3.42;;;;;;;;;;5027020;28;20406;-62
2023/07/07 05:27:05;;;;;;;3.85;3.08;;;;;;;;;;5027944;28;20040;-62
2023/07/07 05:29:31;;;;;;;3.28;2.97;;;;;;;;;;5027081;28;20088;-62
2023/07/07 05:31:57;;;;;;;2.65;2.45;;;;;;;;;;5027147;28;20322;-62
2023/07/07 05:34:23;;;;;;;2.92;2.72;;;;;;;;;;5027293;28;20049;-62
2023/07/07 05:36:49;;;;;;;2.67;2.47;;;;;;;;;;5027248;28;20068;-62
2023/07/07 05:39:15;;;;;;;2.63;2.42;;;;;;;;;;5026334;28;20084;-62
2023/07/07 05:41:41;;;;;;;3.20;2.90;;;;;;;;;;5027197;28;20037;-62
2023/07/07 05:44:07;;;;;;;2.60;2.40;;;;;;;;;;5026723;28;20123;-62
2023/07/07 05:46:33;;;;;;;2.70;2.50;;;;;;;;;;5027170;28;20045;-62
2023/07/07 05:48:59;;;;;;;3.08;2.85;;;;;;;;;;5028643;28;20045;-62
2023/07/07 05:51:25;;;;;;;3.90;3.60;;;;;;;;;;5028670;28;20056;-62
2023/07/07 05:53:51;;;;;;;2.80;2.60;;;;;;;;;;5026888;28;20182;-62
2023/07/07 05:56:19;;;;;;;2.17;1.98;;;;;;;;;;5026576;28;20083;-62
2023/07/07 05:58:45;;;;;;;2.53;2.35;;;;;;;;;;5025933;28;20049;-62
2023/07/07 06:01:13;;;;;;;3.15;2.78;;;;;;;;;;5026398;28;20049;-62
2023/07/07 06:03:39;;;;;;;2.60;2.13;;;;;;;;;;5026975;28;20049;-62
2023/07/07 06:06:05;;;;;;;3.15;2.80;;;;;;;;;;5026634;28;20060;-62
2023/07/07 06:08:31;;;;;;;3.22;2.92;;;;;;;;;;5026532;28;20048;-62
2023/07/07 06:10:57;;;;;;;2.80;2.47;;;;;;;;;;5026838;28;20088;-62
2023/07/07 06:13:24;;;;;;;2.78;2.38;;;;;;;;;;5025754;28;20042;-62
2023/07/07 06:15:53;;;;;;;2.60;2.40;;;;;;;;;;5026804;28;20037;-62
2023/07/07 06:18:19;;;;;;;1.67;1.50;;;;;;;;;;5026596;28;20041;-62
2023/07/07 06:20:52;;;;;;;3.60;2.75;;;;;;;;;;5026088;28;20123;-62
2023/07/07 06:23:18;;;;;;;3.33;3.13;;;;;;;;;;5026190;28;20532;-62
2023/07/07 06:25:44;;;;;;;3.65;3.35;;;;;;;;;;5026669;28;20282;-62
2023/07/07 06:28:11;;;;;;;2.90;2.70;;;;;;;;;;5025516;28;20540;-62
2023/07/07 06:30:37;;;;;;;3.72;2.95;;;;;;;;;;5026709;28;20071;-62
2023/07/07 06:33:03;;;;;;;3.05;2.75;;;;;;;;;;5026479;28;20049;-62
2023/07/07 06:35:29;;;;;;;2.97;2.70;;;;;;;;;;5025210;28;20045;-62
2023/07/07 06:37:55;;;;;;;3.38;3.08;;;;;;;;;;5026382;28;20115;-62
2023/07/07 06:40:21;;;;;;;4.30;3.60;;;;;;;;;;5025905;28;20038;-62
2023/07/07 06:42:50;;;;;;;2.63;2.42;;;;;;;;;;5025260;28;20081;-62
2023/07/07 06:45:16;;;;;;;3.33;3.03;;;;;;;;;;5025807;28;20514;-62
2023/07/07 06:47:42;;;;;;;2.53;2.33;;;;;;;;;;5026002;28;20176;-62
2023/07/07 06:50:14;;;;;;;2.38;2.17;;;;;;;;;;5025064;28;20128;-62
2023/07/07 06:52:40;;;;;;;2.72;2.53;;;;;;;;;;5026132;28;20052;-62
2023/07/07 06:55:06;;;;;;;2.45;2.25;;;;;;;;;;5025600;28;20041;-62
2023/07/07 06:57:32;;;;;;;2.83;2.63;;;;;;;;;;5026338;28;20045;-62
2023/07/07 06:59:58;;;;;;;2.47;2.28;;;;;;;;;;5025756;28;20047;-62
2023/07/07 07:02:24;;;;;;;4.20;3.60;;;;;;;;;;5024781;28;20072;-62
2023/07/07 07:04:50;;;;;;;2.72;2.53;;;;;;;;;;5025489;28;20501;-62
2023/07/07 07:07:16;;;;;;;1.80;1.70;;;;;;;;;;5025245;28;20050;-62
2023/07/07 07:09:42;;;;;;;1.83;1.73;;;;;;;;;;5024617;28;20558;-62
2023/07/07 07:12:09;;;;;;;2.22;1.98;;;;;;;;;;5025205;28;20060;-62
2023/07/07 07:14:35;;;;;;;3.95;2.90;;;;;;;;;;5026165;28;20048;-62
2023/07/07 07:17:01;;;;;;;2.00;1.90;;;;;;;;;;5025351;28;20045;-62
2023/07/07 07:19:27;;;;;;;1.85;1.65;;;;;;;;;;5025210;28;20053;-62
2023/07/07 07:21:53;;;;;;;2.35;2.20;;;;;;;;;;5025499;28;20041;-62
2023/07/07 07:24:19;;;;;;;2.40;2.20;;;;;;;;;;5024551;28;20406;-62
2023/07/07 07:26:45;;;;;;;2.40;2.20;;;;;;;;;;5025596;28;20079;-63
2023/07/07 07:29:14;;;;;;;3.03;2.75;;;;;;;;;;5025005;28;20478;-62
2023/07/07 07:31:40;;;;;;;3.15;2.85;;;;;;;;;;5024736;28;20045;-62
2023/07/07 07:34:26;;;;;;;3.17;2.60;;;;;;;;;;5025669;28;20045;-62
2023/07/07 07:36:53;;;;;;;2.08;1.88;;;;;;;;;;5024992;28;20049;-62
2023/07/07 07:39:19;;;;;;;3.78;2.72;;;;;;;;;;5023825;28;20806;-63
2023/07/07 07:41:49;;;;;;;2.90;2.70;;;;;;;;;;5025509;28;20037;-63
2023/07/07 07:44:15;;;;;;;1.92;1.83;;;;;;;;;;5023396;28;20501;-62
2023/07/07 07:46:42;;;;;;;3.67;2.63;;;;;;;;;;5025215;28;20037;-62
2023/07/07 07:49:08;;;;;;;3.00;2.28;;;;;;;;;;5024785;28;20049;-62
2023/07/07 07:51:37;;;;;;;2.78;2.30;;;;;;;;;;5025175;28;20045;-62
2023/07/07 07:54:04;;;;;;;2.05;1.85;;;;;;;;;;5025403;28;20067;-62
2023/07/07 07:56:30;;;;;;;2.15;1.65;;;;;;;;;;5024982;28;20476;-62
2023/07/07 07:58:56;;;;;;;1.85;1.70;;;;;;;;;;5024695;28;20562;-62
2023/07/07 08:01:22;;;;;;;1.77;1.67;;;;;;;;;;5024970;28;20072;-63
2023/07/07 08:03:48;;;;;;;1.35;1.20;;;;;;;;;;5025085;28;20054;-63
2023/07/07 08:06:14;;;;;;;1.40;1.30;;;;;;;;;;5024383;28;20048;-63
2023/07/07 08:08:40;;;;;;;2.65;1.75;;;;;;;;;;5025213;28;20041;-63
2023/07/07 08:11:06;;;;;;;2.25;1.77;;;;;;;;;;5025518;28;20085;-63
2023/07/07 08:13:32;;;;;;;2.10;1.90;;;;;;;;;;5025366;28;20565;-63
2023/07/07 08:15:58;;;;;;;1.60;1.50;;;;;;;;;;5024873;28;20509;-63
2023/07/07 08:18:24;;;;;;;2.28;1.75;;;;;;;;;;5024759;28;20038;-63
2023/07/07 08:20:51;;;;;;;2.00;1.48;;;;;;;;;;5024345;28;20046;-63
2023/07/07 08:23:17;;;;;;;1.60;1.33;;;;;;;;;;5024718;28;20064;-62
2023/07/07 08:25:45;;;;;;;1.65;1.40;;;;;;;;;;5025154;28;20037;-62
2023/07/07 08:28:11;;;;;;;2.22;1.33;;;;;;;;;;5024149;28;20053;-62
2023/07/07 08:30:37;;;;;;;1.58;1.48;;;;;;;;;;5024721;28;20061;-62
2023/07/07 08:33:03;;;;;;;2.53;1.60;;;;;;;;;;5025051;28;20045;-63
2023/07/07 08:35:29;;;;;;;0.90;0.90;;;;;;;;;;5024104;28;20042;-63
2023/07/07 08:37:55;;;;;;;2.15;1.80;;;;;;;;;;5024568;28;20042;-63
2023/07/07 08:40:23;;;;;;;2.33;1.95;;;;;;;;;;5023640;28;20073;-63
2023/07/07 08:42:50;;;;;;;1.95;1.50;;;;;;;;;;5024805;28;20075;-62
2023/07/07 08:45:19;;;;;;;1.83;1.48;;;;;;;;;;5024265;28;20037;-63
2023/07/07 08:47:45;;;;;;;2.05;1.80;;;;;;;;;;5024009;28;20099;-63
2023/07/07 08:50:16;;;;;;;2.55;1.60;;;;;;;;;;5024441;28;20049;-63
2023/07/07 08:52:55;;;;;;;1.60;1.27;;;;;;;;;;5024508;28;20049;-63
2023/07/07 08:55:33;;;;;;;1.30;1.17;;;;;;;;;;5025133;28;20068;-63
2023/07/07 08:58:19;;;;;;;1.88;1.52;;;;;;;;;;5027992;28;20030;-63
2023/07/07 09:00:46;;;;;;;5.50;1.85;;;;;;;;;;5020743;28;20065;-63
2023/07/07 09:03:15;;;;;;;1.83;1.50;;;;;;;;;;5027286;28;20077;-63
2023/07/07 09:05:48;;;;;;;2.58;1.60;;;;;;;;;;5028145;28;20047;-63
2023/07/07 09:08:24;;;;;;;1.40;1.27;;;;;;;;;;5027791;28;20037;-63
2023/07/07 09:10:56;;;;;;;1.73;1.35;;;;;;;;;;5027600;28;20045;-63
2023/07/07 09:13:26;;;;;;;1.27;1.17;;;;;;;;;;5027575;28;20556;-63
2023/07/07 09:15:58;;;;;;;1.60;1.50;;;;;;;;;;5027585;28;20354;-63
2023/07/07 09:18:24;;;;;;;;;;;;;;;;;;5027631;28;20136;-63
2023/07/07 09:20:58;;;;;;;1.80;1.40;;;;;;;;;;5027517;28;20027;-63
2023/07/07 09:23:29;;;;;;;1.48;1.38;;;;;;;;;;5026814;28;20049;-63
2023/07/07 09:26:01;;;;;;;1.50;1.40;;;;;;;;;;5027703;28;20049;-63
2023/07/07 09:28:29;;;;;;;1.20;1.10;;;;;;;;;;5027102;28;20081;-63
2023/07/07 09:31:10;;;;;;;1.33;1.23;;;;;;;;;;5026858;28;20081;-63
2023/07/07 09:33:36;;;;;;;1.35;1.25;;;;;;;;;;5027822;28;20045;-63
2023/07/07 09:36:17;;;;;;;1.05;1.05;;;;;;;;;;5028170;28;20045;-63
2023/07/07 09:39:00;;;;;;;1.13;1.02;;;;;;;;;;5027160;28;20044;-63
2023/07/07 09:41:46;;;;;;;2.45;1.20;;;;;;;;;;5026916;28;20404;-63
2023/07/07 09:44:12;;;;;;;1.67;1.52;;;;;;;;;;5041567;28;20056;-63
2023/07/07 09:46:47;;;;;;;2.30;2.10;;;;;;;;;;5027196;28;20049;-63
2023/07/07 09:49:16;;;;;;;1.40;1.30;;;;;;;;;;5027142;28;20057;-63
2023/07/07 09:51:55;;;;;;;1.30;1.20;;;;;;;;;;5026665;28;20228;-63
2023/07/07 09:54:22;;;;;;;1.10;1.00;;;;;;;;;;5026539;28;20437;-63
2023/07/07 09:56:59;;;;;;;1.00;1.00;;;;;;;;;;5026720;28;20547;-63
2023/07/07 09:59:28;;;;;;;1.48;1.30;;;;;;;;;;5025782;28;20379;-63
2023/07/07 10:01:55;;;;;;;1.00;0.85;;;;;;;;;;5026678;28;20041;-63
2023/07/07 10:04:21;;;;;;;1.85;1.02;;;;;;;;;;5026214;28;20524;-63
2023/07/07 10:06:57;;;;;;;1.38;1.27;;;;;;;;;;5025618;28;20127;-63
2023/07/07 10:09:24;;;;;;;1.98;1.27;;;;;;;;;;5026248;28;20048;-63
2023/07/07 10:11:50;;;;;;;1.55;1.20;;;;;;;;;;5026051;28;20049;-63
2023/07/07 10:14:17;;;;;;;1.20;1.10;;;;;;;;;;5026175;28;20071;-63
2023/07/07 10:17:06;;;;;;;1.02;1.02;;;;;;;;;;5026512;28;20052;-63
2023/07/07 10:19:56;;;;;;;1.52;1.13;;;;;;;;;;5006551;28;20409;-63
2023/07/07 10:22:23;;;;;;;1.40;1.30;;;;;;;;;;5026216;28;20053;-63
2023/07/07 10:24:49;;;;;;;1.30;1.20;;;;;;;;;;5026687;28;20049;-63
2023/07/07 10:27:17;;;;;;;0.93;0.90;;;;;;;;;;5025267;28;20073;-63
2023/07/07 10:29:44;;;;;;;1.30;1.20;;;;;;;;;;5026202;28;20097;-63
2023/07/07 10:32:15;;;;;;;1.33;1.00;;;;;;;;;;5026073;28;20436;-63
2023/07/07 10:34:43;;;;;;;1.30;1.20;;;;;;;;;;5025648;28;20052;-63
2023/07/07 10:37:19;;;;;;;1.63;1.52;;;;;;;;;;5025947;28;20042;-63
2023/07/07 10:39:49;;;;;;;1.27;1.13;;;;;;;;;;5026342;28;20049;-63
2023/07/07 10:42:15;;;;;;;1.85;1.45;;;;;;;;;;5025461;28;20037;-63
2023/07/07 10:44:42;;;;;;;1.25;1.15;;;;;;;;;;5026181;28;20660;-63
2023/07/07 10:47:09;;;;;;;1.45;1.35;;;;;;;;;;5024968;28;20041;-63
2023/07/07 10:49:35;;;;;;;1.15;1.05;;;;;;;;;;5025287;28;20124;-63
2023/07/07 10:52:01;;;;;;;1.65;1.55;;;;;;;;;;5025820;28;20056;-63
2023/07/07 10:54:37;;;;;;;2.08;1.80;;;;;;;;;;5024989;28;20539;-63
2023/07/07 10:57:23;;;;;;;1.20;1.08;;;;;;;;;;5026437;28;20069;-63
2023/07/07 10:59:56;;;;;;;1.63;1.52;;;;;;;;;;5025668;28;20041;-63
2023/07/07 11:02:22;;;;;;;1.55;1.10;;;;;;;;;;5025008;28;20041;-63
2023/07/07 11:04:48;;;;;;;1.38;1.27;;;;;;;;;;5025760;28;20410;-63
2023/07/07 11:07:38;;;;;;;2.58;1.42;;;;;;;;;;5025303;28;20087;-63
2023/07/07 11:10:16;;;;;;;1.25;1.13;;;;;;;;;;5025556;28;20112;-63
2023/07/07 11:12:52;;;;;;;1.65;1.40;;;;;;;;;;5025499;28;20781;-63
2023/07/07 11:15:32;;;;;;;1.60;1.50;;;;;;;;;;5024925;28;20083;-63
2023/07/07 11:18:07;;;;;;;2.15;1.45;;;;;;;;;;5025160;28;20524;-63
2023/07/07 11:20:42;;;;;;;1.77;1.35;;;;;;;;;;5025653;28;20049;-63
2023/07/07 11:23:20;;;;;;;1.58;1.48;;;;;;;;;;5024613;28;20052;-63
2023/07/07 11:25:54;;;;;;;1.17;1.08;;;;;;;;;;5025680;28;20041;-63
2023/07/07 11:28:20;;;;;;;1.10;1.00;;;;;;;;;;5025258;28;20038;-63
2023/07/07 11:30:53;;;;;;;2.22;1.65;;;;;;;;;;5024864;28;20056;-63
2023/07/07 11:33:38;;;;;;;1.88;1.30;;;;;;;;;;5025058;28;20086;-63
2023/07/07 11:36:23;;;;;;;1.63;1.25;;;;;;;;;;5025723;28;20033;-63
2023/07/07 11:38:58;;;;;;;1.10;1.00;;;;;;;;;;5025255;28;20045;-63
2023/07/07 11:41:24;;;;;;;1.52;1.35;;;;;;;;;;5024810;28;20052;-63
2023/07/07 11:44:18;;;;;;;1.35;1.25;;;;;;;;;;5024399;28;20037;-63
2023/07/07 11:46:47;;;;;;;1.65;1.50;;;;;;;;;;5025270;28;20633;-63
2023/07/07 11:49:32;;;;;;;1.38;1.27;;;;;;;;;;5024803;28;20042;-63
2023/07/07 11:52:13;;;;;;;1.45;0.98;;;;;;;;;;5024560;28;20526;-63
2023/07/07 11:55:03;;;;;;;2.28;2.08;;;;;;;;;;5025327;28;20073;-63
2023/07/07 11:57:48;;;;;;;3.63;2.08;;;;;;;;;;5018751;28;20045;-63
2023/07/07 12:00:23;;;;;;;1.90;1.80;;;;;;;;;;5024886;28;20621;-63
2023/07/07 12:03:08;;;;;;;1.67;1.40;;;;;;;;;;5025579;28;20042;-63
2023/07/07 12:05:36;;;;;;;1.60;1.48;;;;;;;;;;5024866;28;20048;-63
2023/07/07 12:08:06;;;;;;;1.20;1.10;;;;;;;;;;5024920;28;20572;-63
2023/07/07 12:10:40;;;;;;;1.23;0.90;;;;;;;;;;5025264;28;20045;-64
2023/07/07 12:13:18;;;;;;;1.60;1.50;;;;;;;;;;5024713;28;20119;-63
2023/07/07 12:15:47;;;;;;;1.65;1.55;;;;;;;;;;5024774;28;20464;-63
2023/07/07 12:18:25;;;;;;;2.38;1.50;;;;;;;;;;5024477;28;20038;-63
2023/07/07 12:20:55;;;;;;;1.30;1.20;;;;;;;;;;5025014;28;20053;-63
2023/07/07 12:23:29;;;;;;;1.30;1.20;;;;;;;;;;5024502;28;20049;-63
2023/07/07 12:25:56;;;;;;;1.30;1.20;;;;;;;;;;5024174;28;20076;-63
2023/07/07 12:28:22;;;;;;;2.10;1.90;;;;;;;;;;5024516;28;20049;-63
2023/07/07 12:30:48;;;;;;;1.60;1.50;;;;;;;;;;5027136;28;20037;-63
2023/07/07 12:33:17;;;;;;;1.98;1.42;;;;;;;;;;5027701;28;20033;-63
2023/07/07 12:35:46;;;;;;;2.75;1.50;;;;;;;;;;5028519;28;20048;-63
2023/07/07 12:38:15;;;;;;;1.63;1.42;;;;;;;;;;5027951;28;20117;-63
2023/07/07 12:40:44;;;;;;;1.60;1.50;;;;;;;;;;5027681;28;20515;-63
2023/07/07 12:43:21;;;;;;;1.73;1.30;;;;;;;;;;5027696;28;20406;-63
2023/07/07 12:45:48;;;;;;;1.77;1.25;;;;;;;;;;5028391;28;20050;-63
2023/07/07 12:48:22;;;;;;;1.15;1.05;;;;;;;;;;5027540;28;20041;-63
2023/07/07 12:50:49;;;;;;;0.90;0.90;;;;;;;;;;5028683;28;20051;-63
2023/07/07 12:53:27;;;;;;;1.30;0.82;;;;;;;;;;5028588;28;20048;-63
2023/07/07 12:56:00;;;;;;;1.67;1.10;;;;;;;;;;5028432;28;20049;-63
2023/07/07 12:58:31;;;;;;;1.30;1.20;;;;;;;;;;5028024;28;20041;-63
2023/07/07 13:01:05;;;;;;;1.80;1.37;;;;;;;;;;5027494;28;20076;-63
2023/07/07 13:03:31;;;;;;;1.40;1.30;;;;;;;;;;5027821;28;20045;-63
2023/07/07 13:05:59;;;;;;;1.75;1.50;;;;;;;;;;5027837;28;20050;-63
2023/07/07 13:08:35;;;;;;;1.42;1.20;;;;;;;;;;5026888;28;20053;-63
2023/07/07 13:11:04;;;;;;;2.05;1.45;;;;;;;;;;5027606;28;20688;-63
2023/07/07 13:13:34;;;;;;;1.30;1.10;;;;;;;;;;5025914;28;20085;-63
2023/07/07 13:16:00;;;;;;;1.95;1.20;;;;;;;;;;5027240;28;20037;-63
2023/07/07 13:18:26;;;;;;;1.10;1.00;;;;;;;;;;5027378;28;20049;-63
2023/07/07 13:20:53;;;;;;;1.02;0.85;;;;;;;;;;5027852;28;20224;-63
2023/07/07 13:23:23;;;;;;;1.30;1.15;;;;;;;;;;5027012;28;20046;-63
2023/07/07 13:25:49;;;;;;;1.73;1.45;;;;;;;;;;5027738;28;20068;-63
2023/07/07 13:28:16;;;;;;;1.30;1.20;;;;;;;;;;5027361;28;20033;-63
2023/07/07 13:30:45;;;;;;;1.33;1.20;;;;;;;;;;5026741;28;20049;-63
2023/07/07 13:33:12;;;;;;;0.70;0.70;;;;;;;;;;5025779;28;20143;-63
2023/07/07 13:35:40;;;;;;;1.45;1.00;;;;;;;;;;5027436;28;20041;-63
2023/07/07 13:38:08;;;;;;;2.00;1.38;;;;;;;;;;5027921;28;20095;-63
2023/07/07 13:40:35;;;;;;;1.05;0.98;;;;;;;;;;5027834;28;20103;-63
2023/07/07 13:43:01;;;;;;;1.33;1.23;;;;;;;;;;5025804;28;20045;-63
2023/07/07 13:45:27;;;;;;;0.98;0.93;;;;;;;;;;5027307;28;20435;-63
2023/07/07 13:47:54;;;;;;;1.60;1.42;;;;;;;;;;5027600;28;20045;-63
2023/07/07 13:50:23;;;;;;;1.23;1.10;;;;;;;;;;5026363;28;20137;-63
2023/07/07 13:52:53;;;;;;;1.67;1.42;;;;;;;;;;5027343;28;20033;-63
2023/07/07 13:55:19;;;;;;;2.30;2.03;;;;;;;;;;5026731;28;20030;-63
2023/07/07 13:57:45;;;;;;;1.63;1.45;;;;;;;;;;5026330;28;20403;-63
2023/07/07 14:00:17;;;;;;;1.60;1.50;;;;;;;;;;5026396;28;20041;-63
2023/07/07 14:02:43;;;;;;;1.95;1.45;;;;;;;;;;5026983;28;20045;-63
2023/07/07 14:05:13;;;;;;;1.20;1.05;;;;;;;;;;5025891;28;20038;-63
2023/07/07 14:07:40;;;;;;;0.90;0.90;;;;;;;;;;5026805;28;20052;-63
2023/07/07 14:10:27;;;;;;;1.40;1.30;;;;;;;;;;5027189;28;20088;-63
2023/07/07 14:12:53;;;;;;;2.00;1.80;;;;;;;;;;5025873;28;20049;-63
2023/07/07 14:15:20;;;;;;;1.60;1.50;;;;;;;;;;5026257;28;20039;-63
2023/07/07 14:17:46;;;;;;;1.33;1.23;;;;;;;;;;5026847;28;20045;-63
2023/07/07 14:20:23;;;;;;;2.28;2.00;;;;;;;;;;5025399;28;20616;-63
2023/07/07 14:22:50;;;;;;;2.65;1.85;;;;;;;;;;5025107;28;20048;-63
2023/07/07 14:25:17;;;;;;;2.00;1.80;;;;;;;;;;5025681;28;20045;-63
2023/07/07 14:27:43;;;;;;;1.50;1.40;;;;;;;;;;5026615;28;20494;-63
2023/07/07 14:30:18;;;;;;;2.03;1.83;;;;;;;;;;5026101;28;20562;-63
2023/07/07 14:32:45;;;;;;;1.88;1.48;;;;;;;;;;5025714;28;20045;-63
2023/07/07 14:35:15;;;;;;;1.50;1.40;;;;;;;;;;5025952;28;20045;-64
2023/07/07 14:37:48;;;;;;;1.90;1.40;;;;;;;;;;5026509;28;20052;-63
2023/07/07 14:40:23;;;;;;;0.80;0.80;;;;;;;;;;5025486;28;20534;-63
2023/07/07 14:42:50;;;;;;;1.67;1.58;;;;;;;;;;5026207;28;20045;-63
2023/07/07 14:45:34;;;;;;;2.13;1.60;;;;;;;;;;5026017;28;20061;-63
2023/07/07 14:48:01;;;;;;;1.63;1.52;;;;;;;;;;5025436;28;20041;-63
2023/07/07 14:50:28;;;;;;;2.22;1.75;;;;;;;;;;5025703;28;20386;-63
2023/07/07 14:52:56;;;;;;;1.55;1.30;;;;;;;;;;5025936;28;20042;-64
2023/07/07 14:55:23;;;;;;;1.40;1.30;;;;;;;;;;5025213;28;20037;-63